Time;durP1;ratioP1;P1;durP2;ratioP2;P2;SDS_P1;SDS_P2;PMS_P1;PMS_P2;Temp;Humidity;BMP_temperature;BMP_pressure;BME280_temperature;BME280_humidity;BME280_pressure;Samples;Min_cycle;Max_cycle;Signal;HPM_P1;HPM_P2
2022/02/28 00:00:03;;;;;;;12.30;4.72;;;5.30;75.40;;;;;;4800392;29;20050;-71
2022/02/28 00:02:30;;;;;;;13.95;4.43;;;5.30;75.70;;;;;;4801279;29;20066;-71
2022/02/28 00:04:58;;;;;;;15.90;5.07;;;5.30;75.70;;;;;;4790034;30;20414;-71
2022/02/28 00:07:26;;;;;;;12.57;4.82;;;5.30;75.90;;;;;;4806330;29;20417;-71
2022/02/28 00:09:54;;;;;;;16.58;4.60;;;5.30;75.90;;;;;;4806573;29;20055;-71
2022/02/28 00:12:22;;;;;;;15.32;6.03;;;5.30;76.00;;;;;;4805382;29;20157;-71
2022/02/28 00:14:50;;;;;;;14.13;5.50;;;5.30;76.00;;;;;;4807625;29;20047;-72
2022/02/28 00:17:17;;;;;;;19.67;5.55;;;5.40;76.30;;;;;;4808323;29;20425;-71
2022/02/28 00:19:45;;;;;;;17.98;5.20;;;5.50;76.10;;;;;;4821030;29;20074;-71
2022/02/28 00:22:13;;;;;;;24.77;5.50;;;5.60;76.20;;;;;;4807782;29;20066;-71
2022/02/28 00:24:41;;;;;;;11.63;5.18;;;5.60;76.20;;;;;;4807945;29;20058;-71
2022/02/28 00:27:08;;;;;;;15.15;5.47;;;5.60;76.10;;;;;;4821256;29;20054;-70
2022/02/28 00:29:36;;;;;;;13.50;5.38;;;5.60;76.10;;;;;;4807515;29;20138;-70
2022/02/28 00:32:04;;;;;;;16.80;5.72;;;5.60;76.00;;;;;;4807808;29;20071;-71
2022/02/28 00:34:34;;;;;;;15.13;4.88;;;5.50;76.10;;;;;;4806700;29;20061;-70
2022/02/28 00:37:04;;;;;;;13.10;5.32;;;5.40;76.30;;;;;;4801063;29;20055;-72
2022/02/28 00:39:32;;;;;;;15.70;5.10;;;5.30;76.40;;;;;;4790964;29;20058;-70
2022/02/28 00:41:59;;;;;;;19.38;5.32;;;5.30;76.50;;;;;;4807123;29;20043;-70
2022/02/28 00:44:27;;;;;;;20.10;5.78;;;5.40;76.50;;;;;;4807276;29;20055;-70
2022/02/28 00:46:56;;;;;;;13.27;5.35;;;5.30;76.50;;;;;;4806872;29;20054;-70
2022/02/28 00:49:25;;;;;;;13.70;5.03;;;5.30;76.60;;;;;;4816480;29;20062;-70
2022/02/28 00:51:53;;;;;;;18.13;6.03;;;5.30;76.70;;;;;;4787157;29;20066;-70
2022/02/28 00:54:21;;;;;;;13.27;5.38;;;5.20;76.90;;;;;;4802510;29;20051;-70
2022/02/28 00:56:49;;;;;;;14.57;5.57;;;5.20;77.00;;;;;;4804194;29;20047;-70
2022/02/28 00:59:17;;;;;;;16.55;5.43;;;5.20;77.20;;;;;;4795045;29;20059;-70
2022/02/28 01:01:45;;;;;;;17.90;5.35;;;5.20;77.40;;;;;;4800922;29;20069;-72
2022/02/28 01:04:13;;;;;;;17.50;5.82;;;5.20;77.50;;;;;;4806055;29;20070;-70
2022/02/28 01:06:42;;;;;;;15.77;5.40;;;5.20;77.60;;;;;;4805103;29;20051;-71
2022/02/28 01:09:09;;;;;;;13.60;4.95;;;5.20;77.60;;;;;;4805365;29;20390;-71
2022/02/28 01:11:37;;;;;;;14.85;5.78;;;5.20;77.70;;;;;;4806949;29;20398;-71
2022/02/28 01:14:05;;;;;;;19.77;5.50;;;5.20;77.70;;;;;;4789208;29;20050;-71
2022/02/28 01:16:33;;;;;;;11.07;5.15;;;5.10;77.70;;;;;;4806754;29;20051;-71
2022/02/28 01:19:01;;;;;;;17.58;6.25;;;5.10;77.80;;;;;;4806201;29;20047;-71
2022/02/28 01:21:29;;;;;;;15.90;5.60;;;5.10;78.10;;;;;;4807025;29;20059;-71
2022/02/28 01:23:57;;;;;;;17.02;5.15;;;5.00;78.20;;;;;;4804522;29;20065;-71
2022/02/28 01:26:25;;;;;;;20.15;5.72;;;5.00;78.20;;;;;;4803688;29;20520;-71
2022/02/28 01:28:52;;;;;;;16.60;5.40;;;5.00;78.30;;;;;;4817312;29;20496;-71
2022/02/28 01:31:20;;;;;;;16.67;6.55;;;5.00;78.40;;;;;;4799422;29;20054;-71
2022/02/28 01:33:48;;;;;;;15.40;5.30;;;5.00;78.40;;;;;;4801083;29;20051;-70
2022/02/28 01:36:15;;;;;;;21.13;6.15;;;5.00;78.50;;;;;;4800476;29;20065;-71
2022/02/28 01:38:43;;;;;;;16.95;5.88;;;5.00;78.60;;;;;;4804333;29;20504;-70
2022/02/28 01:41:11;;;;;;;15.95;5.63;;;5.00;78.60;;;;;;4804305;29;20054;-70
2022/02/28 01:43:39;;;;;;;18.05;5.97;;;5.10;78.70;;;;;;4805694;29;20054;-71
2022/02/28 01:46:07;;;;;;;15.35;5.97;;;5.20;78.70;;;;;;4788066;29;20043;-70
2022/02/28 01:48:34;;;;;;;15.48;5.82;;;5.20;78.70;;;;;;4815551;29;20058;-71
2022/02/28 01:51:03;;;;;;;17.00;5.57;;;5.30;78.70;;;;;;4803555;29;20065;-70
2022/02/28 01:53:30;;;;;;;18.85;5.82;;;5.30;78.70;;;;;;4803830;29;20416;-70
2022/02/28 01:55:59;;;;;;;15.43;5.40;;;5.30;78.60;;;;;;4789324;29;20046;-70
2022/02/28 01:58:38;;;;;;;19.23;5.80;;;5.30;78.60;;;;;;4816674;29;20509;-70
2022/02/28 02:01:07;;;;;;;19.05;5.57;;;5.30;78.60;;;;;;4803515;29;20047;-70
2022/02/28 02:03:36;;;;;;;18.80;5.97;;;5.30;78.60;;;;;;4804769;29;20051;-70
2022/02/28 02:06:09;;;;;;;20.90;6.00;;;5.30;78.60;;;;;;4816390;29;20057;-70
2022/02/28 02:08:40;;;;;;;18.00;5.78;;;5.30;78.70;;;;;;4802939;29;20413;-70
2022/02/28 02:11:07;;;;;;;16.30;5.40;;;5.40;78.70;;;;;;4804348;29;20063;-70
2022/02/28 02:13:36;;;;;;;17.65;5.88;;;5.40;78.70;;;;;;4816040;29;20055;-70
2022/02/28 02:16:06;;;;;;;15.60;5.97;;;5.40;78.70;;;;;;4789419;29;20047;-70
2022/02/28 02:18:34;;;;;;;16.85;5.85;;;5.40;78.70;;;;;;4803991;29;20051;-70
2022/02/28 02:21:01;;;;;;;20.00;6.22;;;5.40;78.70;;;;;;4798424;29;20051;-70
2022/02/28 02:23:30;;;;;;;16.60;6.40;;;5.50;78.70;;;;;;4805647;29;20051;-70
2022/02/28 02:25:59;;;;;;;19.80;6.05;;;5.50;78.80;;;;;;4803609;29;20055;-70
2022/02/28 02:28:29;;;;;;;13.63;5.90;;;5.50;78.80;;;;;;4815895;29;20054;-70
2022/02/28 02:30:58;;;;;;;19.40;5.97;;;5.50;78.80;;;;;;4798320;29;20485;-70
2022/02/28 02:33:26;;;;;;;18.38;6.45;;;5.50;79.00;;;;;;4803139;29;20043;-71
2022/02/28 02:36:00;;;;;;;17.13;6.20;;;5.50;79.00;;;;;;4817827;29;20518;-71
2022/02/28 02:38:31;;;;;;;18.77;5.53;;;5.50;79.00;;;;;;4802982;29;20058;-71
2022/02/28 02:40:59;;;;;;;19.63;6.68;;;5.60;78.90;;;;;;4816980;29;20047;-71
2022/02/28 02:43:26;;;;;;;12.70;5.55;;;5.60;78.90;;;;;;4803066;29;20047;-71
2022/02/28 02:45:54;;;;;;;15.57;6.22;;;5.60;78.90;;;;;;4803650;29;20047;-71
2022/02/28 02:48:26;;;;;;;17.63;5.93;;;5.60;79.00;;;;;;4817107;29;20091;-71
2022/02/28 02:51:01;;;;;;;20.05;6.13;;;5.50;79.20;;;;;;4802766;29;20061;-71
2022/02/28 02:53:30;;;;;;;14.85;6.38;;;5.50;79.10;;;;;;4803167;29;20062;-71
2022/02/28 02:55:59;;;;;;;17.02;6.43;;;5.50;79.20;;;;;;4802966;29;20058;-71
2022/02/28 02:58:27;;;;;;;21.73;6.30;;;5.50;79.20;;;;;;4800367;29;20414;-71
2022/02/28 03:00:54;;;;;;;19.88;6.13;;;5.50;79.40;;;;;;4784800;29;20058;-71
2022/02/28 03:03:30;;;;;;;18.67;6.80;;;5.40;79.40;;;;;;4800941;29;20061;-71
2022/02/28 03:06:01;;;;;;;17.70;6.75;;;5.40;79.60;;;;;;4802516;29;20063;-71
2022/02/28 03:08:32;;;;;;;16.92;6.88;;;5.30;79.60;;;;;;4814826;29;20536;-71
2022/02/28 03:11:00;;;;;;;21.00;6.47;;;5.30;79.70;;;;;;4800479;29;20043;-71
2022/02/28 03:13:28;;;;;;;17.42;6.70;;;5.30;79.80;;;;;;4813278;29;20070;-71
2022/02/28 03:15:57;;;;;;;18.05;6.60;;;5.30;79.90;;;;;;4809434;29;20043;-71
2022/02/28 03:18:25;;;;;;;15.65;6.65;;;5.30;80.00;;;;;;4788151;29;20489;-71
2022/02/28 03:20:53;;;;;;;15.48;6.88;;;5.30;80.00;;;;;;4804307;29;20047;-71
2022/02/28 03:23:21;;;;;;;20.92;6.93;;;5.30;80.10;;;;;;4791761;29;20046;-71
2022/02/28 03:26:00;;;;;;;22.60;6.97;;;5.30;80.10;;;;;;4806512;29;20050;-71
2022/02/28 03:28:27;;;;;;;18.17;7.40;;;5.30;80.20;;;;;;4806851;29;20053;-71
2022/02/28 03:30:55;;;;;;;18.60;6.70;;;5.30;80.20;;;;;;4821100;29;20054;-71
2022/02/28 03:33:23;;;;;;;18.73;7.30;;;5.30;80.20;;;;;;4815019;29;20046;-72
2022/02/28 03:35:52;;;;;;;17.15;7.13;;;5.30;80.30;;;;;;4783962;29;20057;-71
2022/02/28 03:38:20;;;;;;;19.52;7.40;;;5.30;80.30;;;;;;4804545;29;20051;-72
2022/02/28 03:40:48;;;;;;;19.15;7.85;;;5.40;80.50;;;;;;4819006;29;20335;-71
2022/02/28 03:43:16;;;;;;;29.27;7.63;;;5.40;80.50;;;;;;4819566;29;20047;-71
2022/02/28 03:46:02;;;;;;;18.88;7.25;;;5.40;80.60;;;;;;4806770;29;20066;-71
2022/02/28 03:48:52;;;;;;;19.20;6.97;;;5.50;80.60;;;;;;4804040;29;20051;-70
2022/02/28 03:51:40;;;;;;;22.80;8.07;;;5.50;80.70;;;;;;4806650;29;20430;-70
2022/02/28 03:54:18;;;;;;;19.13;7.30;;;5.60;80.90;;;;;;4791101;29;20521;-70
2022/02/28 03:56:47;;;;;;;23.42;8.68;;;5.60;81.10;;;;;;4805947;29;20046;-70
2022/02/28 03:59:15;;;;;;;19.08;7.93;;;5.60;81.30;;;;;;4806118;29;20051;-71
2022/02/28 04:01:43;;;;;;;23.63;7.97;;;5.70;81.50;;;;;;4807204;29;20066;-70
2022/02/28 04:04:22;;;;;;;26.13;7.90;;;5.70;81.70;;;;;;4790315;29;20069;-70
2022/02/28 04:06:50;;;;;;;22.73;8.55;;;5.70;81.70;;;;;;4801640;29;20057;-70
2022/02/28 04:09:18;;;;;;;20.58;8.50;;;5.70;81.70;;;;;;4803466;29;20054;-71
2022/02/28 04:11:46;;;;;;;27.23;8.48;;;5.80;82.10;;;;;;4805729;29;20508;-71
2022/02/28 04:14:14;;;;;;;21.13;9.23;;;5.80;82.10;;;;;;4806916;29;20051;-71
2022/02/28 04:16:42;;;;;;;19.55;8.20;;;5.80;82.10;;;;;;4806214;29;20038;-71
2022/02/28 04:19:28;;;;;;;27.55;9.15;;;5.80;82.30;;;;;;4820515;29;20062;-71
2022/02/28 04:21:56;;;;;;;24.13;8.52;;;5.80;82.40;;;;;;4805436;29;20057;-71
2022/02/28 04:24:23;;;;;;;23.48;8.90;;;5.80;82.60;;;;;;4806629;29;20501;-71
2022/02/28 04:26:54;;;;;;;25.25;9.50;;;5.80;82.70;;;;;;4805765;29;20046;-71
2022/02/28 04:29:22;;;;;;;27.83;10.27;;;5.90;82.90;;;;;;4804894;29;20513;-71
2022/02/28 04:31:56;;;;;;;34.30;9.80;;;5.90;82.90;;;;;;4804484;29;20054;-71
2022/02/28 04:34:27;;;;;;;26.25;9.55;;;5.90;83.00;;;;;;4802518;29;20414;-71
2022/02/28 04:36:54;;;;;;;28.27;9.82;;;5.90;83.00;;;;;;4816162;29;20054;-70
2022/02/28 04:39:25;;;;;;;31.45;10.40;;;5.90;83.20;;;;;;4794463;29;20055;-71
2022/02/28 04:41:53;;;;;;;28.55;10.20;;;5.90;83.30;;;;;;4805190;29;20051;-71
2022/02/28 04:44:21;;;;;;;27.73;10.70;;;6.00;83.30;;;;;;4805141;29;20043;-71
2022/02/28 04:46:50;;;;;;;25.80;9.65;;;6.00;83.40;;;;;;4816894;29;20050;-71
2022/02/28 04:49:44;;;;;;;32.53;10.65;;;6.00;83.50;;;;;;4801109;29;20071;-71
2022/02/28 04:52:12;;;;;;;24.83;9.90;;;6.00;83.50;;;;;;4820029;29;20059;-72
2022/02/28 04:54:39;;;;;;;29.10;9.65;;;6.00;83.60;;;;;;4805058;29;20054;-71
2022/02/28 04:57:07;;;;;;;27.25;10.82;;;6.00;83.70;;;;;;4817515;29;20091;-71
2022/02/28 04:59:34;;;;;;;28.23;10.52;;;6.00;83.80;;;;;;4791022;29;20055;-72
2022/02/28 05:02:04;;;;;;;29.35;10.77;;;6.00;83.80;;;;;;4800662;29;20493;-71
2022/02/28 05:04:44;;;;;;;28.55;10.40;;;6.00;83.90;;;;;;4805643;29;20524;-71
2022/02/28 05:07:12;;;;;;;25.50;11.10;;;6.00;84.00;;;;;;4804696;29;20050;-71
2022/02/28 05:09:41;;;;;;;27.98;10.75;;;6.00;84.10;;;;;;4801687;29;20429;-71
2022/02/28 05:12:10;;;;;;;23.17;11.07;;;6.00;84.10;;;;;;4819481;29;20074;-71
2022/02/28 05:14:38;;;;;;;36.53;11.40;;;6.10;84.10;;;;;;4814834;29;20050;-71
2022/02/28 05:17:07;;;;;;;25.83;10.68;;;6.00;84.20;;;;;;4802809;29;20406;-71
2022/02/28 05:19:39;;;;;;;27.10;11.20;;;6.00;84.20;;;;;;4795426;29;20058;-71
2022/02/28 05:22:07;;;;;;;25.95;11.13;;;6.00;84.40;;;;;;4804438;29;20059;-72
2022/02/28 05:24:44;;;;;;;38.72;11.85;;;6.10;84.40;;;;;;4820005;29;20055;-71
2022/02/28 05:27:12;;;;;;;33.45;11.35;;;6.10;84.50;;;;;;4803331;29;20069;-72
2022/02/28 05:29:40;;;;;;;32.13;10.85;;;6.10;84.50;;;;;;4801261;29;20055;-71
2022/02/28 05:32:10;;;;;;;26.80;11.70;;;6.10;84.50;;;;;;4787475;29;20054;-72
2022/02/28 05:34:56;;;;;;;28.67;11.20;;;6.20;84.60;;;;;;4804562;29;20061;-71
2022/02/28 05:37:41;;;;;;;32.53;10.82;;;6.20;84.60;;;;;;4803180;29;20055;-72
2022/02/28 05:40:12;;;;;;;33.83;11.40;;;6.20;84.60;;;;;;4819143;29;20047;-71
2022/02/28 05:42:41;;;;;;;28.98;11.35;;;6.20;84.60;;;;;;4804037;29;20398;-71
2022/02/28 05:45:10;;;;;;;29.95;11.40;;;6.30;84.70;;;;;;4804109;29;20043;-71
2022/02/28 05:47:46;;;;;;;31.98;11.35;;;6.30;84.80;;;;;;4804334;29;20050;-72
2022/02/28 05:50:14;;;;;;;29.63;11.55;;;6.30;84.90;;;;;;4803943;29;20050;-71
2022/02/28 05:52:45;;;;;;;27.08;11.30;;;6.30;84.90;;;;;;4804780;29;20074;-71
2022/02/28 05:55:13;;;;;;;28.83;11.13;;;6.30;84.90;;;;;;4804824;29;20058;-71
2022/02/28 05:57:47;;;;;;;20.92;11.15;;;6.30;84.90;;;;;;4804845;29;20050;-71
2022/02/28 06:00:15;;;;;;;26.58;10.57;;;6.40;85.00;;;;;;4802132;29;20066;-71
2022/02/28 06:02:44;;;;;;;24.65;10.60;;;6.40;84.90;;;;;;4807432;29;20050;-71
2022/02/28 06:05:13;;;;;;;31.85;10.27;;;6.40;84.90;;;;;;4792631;29;20039;-72
2022/02/28 06:07:41;;;;;;;40.17;11.25;;;6.40;85.00;;;;;;4803458;29;20434;-71
2022/02/28 06:10:09;;;;;;;30.38;10.40;;;6.50;85.00;;;;;;4803642;29;20417;-71
2022/02/28 06:12:36;;;;;;;25.92;9.93;;;6.50;85.00;;;;;;4803930;29;20051;-71
2022/02/28 06:15:24;;;;;;;26.10;9.95;;;6.50;85.00;;;;;;4816806;29;20051;-71
2022/02/28 06:17:51;;;;;;;33.05;10.60;;;6.50;85.10;;;;;;4804796;29;20054;-71
2022/02/28 06:20:19;;;;;;;29.45;9.75;;;6.60;85.10;;;;;;4804737;29;20043;-71
2022/02/28 06:22:47;;;;;;;28.58;10.48;;;6.60;85.10;;;;;;4804348;29;20065;-71
2022/02/28 06:25:14;;;;;;;30.75;10.00;;;6.60;85.10;;;;;;4816478;29;20315;-71
2022/02/28 06:27:42;;;;;;;32.00;10.07;;;6.70;85.20;;;;;;4804222;29;20536;-71
2022/02/28 06:30:10;;;;;;;31.45;9.68;;;6.70;85.20;;;;;;4803799;29;20054;-71
2022/02/28 06:32:38;;;;;;;33.53;9.98;;;6.70;85.20;;;;;;4802361;29;20059;-71
2022/02/28 06:35:06;;;;;;;25.35;9.13;;;6.70;85.20;;;;;;4802925;29;20055;-71
2022/02/28 06:37:34;;;;;;;30.25;10.27;;;6.70;85.30;;;;;;4803847;29;20054;-71
2022/02/28 06:40:07;;;;;;;;;;;6.70;85.30;;;;;;4803490;29;20494;-72
2022/02/28 06:42:35;;;;;;;25.23;8.63;;;6.70;85.30;;;;;;4804110;29;19929;-71
2022/02/28 06:45:04;;;;;;;24.38;8.65;;;6.70;85.20;;;;;;4801716;29;20067;-71
2022/02/28 06:47:32;;;;;;;26.80;9.35;;;6.80;85.30;;;;;;4813421;29;20043;-72
2022/02/28 06:49:59;;;;;;;26.20;10.10;;;6.80;85.30;;;;;;4798058;29;20058;-70
2022/02/28 06:52:28;;;;;;;24.52;9.93;;;6.80;85.30;;;;;;4799533;29;20057;-71
2022/02/28 06:54:56;;;;;;;34.28;9.95;;;6.80;85.40;;;;;;4800349;29;20074;-71
2022/02/28 06:57:24;;;;;;;28.60;11.10;;;6.80;85.50;;;;;;4803597;29;20053;-71
2022/02/28 06:59:52;;;;;;;25.55;9.85;;;6.80;85.50;;;;;;4803369;29;20504;-71
2022/02/28 07:02:20;;;;;;;27.35;9.45;;;6.80;85.50;;;;;;4802790;29;20038;-71
2022/02/28 07:05:07;;;;;;;26.90;9.75;;;6.90;85.60;;;;;;4802418;29;20069;-71
2022/02/28 07:07:37;;;;;;;31.35;8.43;;;6.90;85.70;;;;;;4802689;29;20043;-71
2022/02/28 07:10:05;;;;;;;23.25;8.70;;;7.00;85.70;;;;;;4804015;29;20509;-71
2022/02/28 07:12:34;;;;;;;25.30;8.32;;;7.00;85.80;;;;;;4817693;29;20417;-71
2022/02/28 07:15:02;;;;;;;27.90;8.35;;;7.00;85.90;;;;;;4803179;29;20053;-72
2022/02/28 07:17:30;;;;;;;21.92;7.70;;;7.10;86.10;;;;;;4803852;29;20058;-71
2022/02/28 07:19:58;;;;;;;21.40;7.28;;;7.20;86.20;;;;;;4803292;29;20055;-71
2022/02/28 07:22:25;;;;;;;26.25;8.40;;;7.20;86.40;;;;;;4802629;29;20059;-71
2022/02/28 07:24:53;;;;;;;29.55;7.43;;;7.30;86.40;;;;;;4802441;29;20047;-79
2022/02/28 07:27:21;;;;;;;26.42;7.50;;;7.30;86.40;;;;;;4772003;29;20065;-73
2022/02/28 07:29:48;;;;;;;26.77;7.78;;;7.30;86.30;;;;;;4800786;29;20051;-73
2022/02/28 07:32:16;;;;;;;22.77;7.50;;;7.40;86.30;;;;;;4802739;29;20059;-73
2022/02/28 07:34:44;;;;;;;33.67;7.95;;;7.40;86.40;;;;;;4802336;29;20493;-73
2022/02/28 07:37:12;;;;;;;25.63;7.40;;;7.50;86.40;;;;;;4803742;29;20047;-72
2022/02/28 07:39:39;;;;;;;22.33;6.90;;;7.50;86.40;;;;;;4803214;29;20690;-73
2022/02/28 07:42:07;;;;;;;22.05;6.88;;;7.50;86.50;;;;;;4802706;29;20055;-74
2022/02/28 07:44:34;;;;;;;24.52;6.85;;;7.60;86.50;;;;;;4802485;29;20514;-74
2022/02/28 07:47:02;;;;;;;20.80;6.18;;;7.70;86.50;;;;;;4802545;29;20429;-74
2022/02/28 07:49:35;;;;;;;23.50;5.78;;;7.70;86.50;;;;;;4803664;29;20042;-73
2022/02/28 07:52:03;;;;;;;21.27;5.28;;;7.70;86.50;;;;;;4801708;29;20054;-74
2022/02/28 07:54:31;;;;;;;29.13;6.15;;;7.70;86.60;;;;;;4787535;29;20055;-73
2022/02/28 07:56:58;;;;;;;25.80;6.15;;;7.80;86.50;;;;;;4800205;29;20058;-73
2022/02/28 07:59:26;;;;;;;19.58;5.45;;;7.80;86.40;;;;;;4803258;29;20050;-73
2022/02/28 08:01:53;;;;;;;19.58;4.82;;;7.80;86.40;;;;;;4802435;29;20043;-74
2022/02/28 08:04:21;;;;;;;29.90;6.18;;;7.80;86.40;;;;;;4804552;29;20054;-75
2022/02/28 08:06:49;;;;;;;26.80;5.68;;;7.80;86.40;;;;;;4802999;29;20054;-74
2022/02/28 08:09:18;;;;;;;18.92;5.28;;;7.80;86.50;;;;;;4806454;29;20521;-74
2022/02/28 08:11:46;;;;;;;14.48;5.15;;;7.80;86.60;;;;;;4806558;29;20530;-74
2022/02/28 08:14:14;;;;;;;15.13;5.00;;;7.90;86.50;;;;;;4806230;29;20047;-74
2022/02/28 08:16:42;;;;;;;17.27;5.15;;;7.90;86.50;;;;;;4804427;29;20050;-74
2022/02/28 08:19:10;;;;;;;22.35;4.57;;;7.90;86.60;;;;;;4805337;29;20043;-74
2022/02/28 08:21:38;;;;;;;20.17;5.85;;;7.90;86.60;;;;;;4804351;29;20057;-74
2022/02/28 08:24:06;;;;;;;25.48;5.22;;;8.00;86.60;;;;;;4804935;29;20054;-74
2022/02/28 08:26:34;;;;;;;17.23;4.95;;;8.00;86.70;;;;;;4805628;29;20066;-74
2022/02/28 08:29:02;;;;;;;18.35;5.05;;;8.00;86.80;;;;;;4795343;29;20061;-74
2022/02/28 08:31:30;;;;;;;20.60;5.40;;;8.10;86.80;;;;;;4806599;29;20062;-74
2022/02/28 08:33:58;;;;;;;19.15;5.47;;;8.10;86.80;;;;;;4820366;29;20051;-74
2022/02/28 08:36:26;;;;;;;19.40;4.82;;;8.10;86.80;;;;;;4805554;29;20054;-75
2022/02/28 08:38:53;;;;;;;16.23;5.00;;;8.20;86.80;;;;;;4807535;29;20046;-74
2022/02/28 08:41:21;;;;;;;20.80;5.20;;;8.20;86.90;;;;;;4805753;29;20050;-74
2022/02/28 08:43:48;;;;;;;20.42;5.32;;;8.20;86.80;;;;;;4807298;29;20046;-74
2022/02/28 08:46:16;;;;;;;17.52;4.53;;;8.20;86.90;;;;;;4821000;29;20061;-74
2022/02/28 08:48:44;;;;;;;15.30;4.47;;;8.20;86.90;;;;;;4806099;29;20078;-73
2022/02/28 08:51:12;;;;;;;11.38;3.75;;;8.20;86.90;;;;;;4806893;29;20051;-73
2022/02/28 08:53:39;;;;;;;20.50;4.32;;;8.30;86.90;;;;;;4806865;29;20059;-73
2022/02/28 08:56:08;;;;;;;23.17;4.00;;;8.30;86.90;;;;;;4806959;29;20055;-74
2022/02/28 08:58:36;;;;;;;20.95;4.15;;;8.30;86.90;;;;;;4820705;29;20058;-73
2022/02/28 09:01:03;;;;;;;18.65;4.55;;;8.30;86.80;;;;;;4806528;29;20059;-73
2022/02/28 09:03:31;;;;;;;21.98;4.63;;;8.40;86.80;;;;;;4820900;29;20055;-74
2022/02/28 09:05:59;;;;;;;12.73;3.28;;;8.50;86.80;;;;;;4806882;29;20046;-74
2022/02/28 09:08:27;;;;;;;17.73;4.25;;;8.60;86.70;;;;;;4805740;29;20082;-73
2022/02/28 09:10:54;;;;;;;20.40;4.43;;;8.60;86.70;;;;;;4805771;29;20379;-73
2022/02/28 09:13:22;;;;;;;15.05;3.20;;;8.70;86.50;;;;;;4807037;29;20054;-73
2022/02/28 09:15:50;;;;;;;16.55;3.60;;;8.80;86.40;;;;;;4806560;29;20065;-73
2022/02/28 09:18:18;;;;;;;17.27;3.67;;;8.80;86.40;;;;;;4805954;29;20211;-74
2022/02/28 09:20:46;;;;;;;17.83;4.03;;;8.80;86.30;;;;;;4806812;29;20054;-74
2022/02/28 09:23:13;;;;;;;17.77;3.13;;;8.80;86.10;;;;;;4806781;29;20054;-74
2022/02/28 09:25:41;;;;;;;17.23;3.30;;;8.90;86.00;;;;;;4806412;29;20469;-74
2022/02/28 09:28:09;;;;;;;12.10;2.95;;;8.90;85.90;;;;;;4807002;29;20066;-74
2022/02/28 09:30:39;;;;;;;15.57;4.05;;;8.90;85.90;;;;;;4806324;29;20062;-75
2022/02/28 09:33:08;;;;;;;20.25;3.78;;;8.90;85.90;;;;;;4806782;29;20062;-74
2022/02/28 09:35:36;;;;;;;18.77;3.90;;;9.00;85.80;;;;;;4806394;29;20062;-73
2022/02/28 09:38:12;;;;;;;19.35;3.83;;;9.00;85.80;;;;;;4799115;29;20047;-73
2022/02/28 09:40:42;;;;;;;17.23;3.40;;;9.10;85.70;;;;;;4802689;29;20058;-72
2022/02/28 09:43:19;;;;;;;18.85;4.00;;;9.20;85.70;;;;;;4806342;29;20421;-74
2022/02/28 09:46:05;;;;;;;18.45;3.47;;;9.30;85.60;;;;;;4806697;29;20047;-74
2022/02/28 09:49:11;;;;;;;16.90;3.45;;;9.30;85.40;;;;;;4806114;29;20046;-74
2022/02/28 09:52:00;;;;;;;13.77;3.28;;;9.50;85.00;;;;;;4806193;29;20069;-74
2022/02/28 09:54:33;;;;;;;16.55;3.15;;;9.50;84.80;;;;;;4806262;29;20043;-74
2022/02/28 09:57:27;;;;;;;14.98;3.60;;;9.60;84.70;;;;;;4805886;29;20564;-74
2022/02/28 10:00:31;;;;;;;9.68;2.17;;;9.60;84.60;;;;;;4801908;29;20506;-74
2022/02/28 10:03:02;;;;;;;17.23;3.22;;;9.70;84.20;;;;;;4812413;29;20058;-74
2022/02/28 10:05:30;;;;;;;16.80;3.78;;;9.70;84.00;;;;;;4804322;29;20054;-75
2022/02/28 10:08:01;;;;;;;8.18;2.22;;;9.80;84.00;;;;;;4802890;29;20051;-75
2022/02/28 10:10:28;;;;;;;14.25;3.47;;;9.80;84.00;;;;;;4806218;29;20055;-75
2022/02/28 10:12:56;;;;;;;10.90;2.60;;;9.80;83.90;;;;;;4805744;29;20058;-75
2022/02/28 10:15:25;;;;;;;13.93;3.33;;;9.90;83.80;;;;;;4805794;29;20066;-75
2022/02/28 10:17:54;;;;;;;16.90;2.80;;;10.00;83.60;;;;;;4805793;29;20054;-74
2022/02/28 10:20:25;;;;;;;9.93;2.67;;;10.00;83.50;;;;;;4805531;29;20051;-74
2022/02/28 10:23:01;;;;;;;13.75;2.72;;;10.00;83.30;;;;;;4805650;29;20490;-74
2022/02/28 10:25:43;;;;;;;12.10;3.05;;;10.10;83.20;;;;;;4804673;29;20055;-74
2022/02/28 10:28:30;;;;;;;20.13;3.80;;;10.00;83.10;;;;;;4804766;29;20051;-75
2022/02/28 10:31:06;;;;;;;19.38;2.88;;;10.00;83.10;;;;;;4804408;29;20512;-82
2022/02/28 10:33:55;;;;;;;12.63;2.80;;;10.00;83.20;;;;;;4804529;29;20054;-71
2022/02/28 10:36:46;;;;;;;13.23;3.10;;;10.00;83.00;;;;;;4804662;29;20046;-74
2022/02/28 10:39:15;;;;;;;17.90;3.47;;;10.00;82.90;;;;;;4805124;29;20051;-74
2022/02/28 10:41:43;;;;;;;13.73;2.88;;;10.10;83.00;;;;;;4804122;29;20390;-73
2022/02/28 10:44:13;;;;;;;12.02;2.42;;;10.10;82.90;;;;;;4805468;29;20046;-70
2022/02/28 10:46:44;;;;;;;17.55;3.00;;;10.20;82.90;;;;;;4805023;29;21850;-71
2022/02/28 10:49:20;;;;;;;11.45;2.78;;;10.20;82.80;;;;;;4803574;29;20047;-74
2022/02/28 10:51:57;;;;;;;15.48;2.33;;;10.30;82.60;;;;;;4804851;29;20123;-76
2022/02/28 10:54:33;;;;;;;12.83;2.87;;;10.30;82.50;;;;;;4819375;29;20046;-75
2022/02/28 10:57:01;;;;;;;14.77;3.30;;;10.30;82.40;;;;;;4789052;29;20501;-75
2022/02/28 10:59:31;;;;;;;12.27;3.15;;;10.30;82.20;;;;;;4804103;29;20058;-75
2022/02/28 11:02:01;;;;;;;15.85;3.53;;;10.30;82.20;;;;;;4804660;29;20098;-75
2022/02/28 11:04:32;;;;;;;17.17;4.15;;;10.40;82.00;;;;;;4803245;29;20051;-75
2022/02/28 11:07:01;;;;;;;15.73;4.20;;;10.40;81.80;;;;;;4798279;29;20066;-76
2022/02/28 11:09:31;;;;;;;19.30;3.95;;;10.40;81.80;;;;;;4800990;29;20074;-75
2022/02/28 11:12:17;;;;;;;18.77;3.60;;;10.40;81.70;;;;;;4787260;30;20055;-76
2022/02/28 11:14:48;;;;;;;17.42;3.80;;;10.40;81.80;;;;;;4787107;30;20055;-75
2022/02/28 11:17:22;;;;;;;18.08;4.40;;;10.50;81.80;;;;;;4788099;29;20055;-75
2022/02/28 11:19:51;;;;;;;22.23;5.10;;;10.60;81.70;;;;;;4818731;29;20070;-75
2022/02/28 11:22:19;;;;;;;19.23;5.35;;;10.70;81.50;;;;;;4804845;29;20054;-76
2022/02/28 11:24:47;;;;;;;20.98;5.45;;;10.70;81.20;;;;;;4804195;29;20070;-75
2022/02/28 11:27:16;;;;;;;21.70;5.25;;;10.70;81.00;;;;;;4804885;29;20043;-75
2022/02/28 11:29:44;;;;;;;21.48;5.93;;;10.80;81.00;;;;;;4802865;29;20493;-75
2022/02/28 11:32:12;;;;;;;15.75;5.35;;;10.80;80.80;;;;;;4804829;29;20059;-75
2022/02/28 11:34:39;;;;;;;16.52;4.15;;;10.80;80.70;;;;;;4803708;29;20042;-75
2022/02/28 11:37:11;;;;;;;13.75;3.42;;;10.90;80.50;;;;;;4803888;29;20062;-75
2022/02/28 11:39:41;;;;;;;19.65;2.90;;;10.90;80.00;;;;;;4804421;29;20055;-75
2022/02/28 11:42:09;;;;;;;22.00;3.40;;;10.80;79.90;;;;;;4805315;29;20075;-76
2022/02/28 11:44:59;;;;;;;10.30;2.17;;;10.80;80.30;;;;;;4808444;29;20058;-75
2022/02/28 11:47:29;;;;;;;15.43;2.78;;;10.80;80.30;;;;;;4808214;29;20051;-75
2022/02/28 11:50:14;;;;;;;9.20;1.92;;;10.90;80.20;;;;;;4822412;29;20142;-75
2022/02/28 11:52:41;;;;;;;10.25;2.25;;;10.90;80.10;;;;;;4808327;29;20054;-75
2022/02/28 11:55:12;;;;;;;8.73;1.95;;;10.90;80.10;;;;;;4808268;29;20051;-75
2022/02/28 11:57:51;;;;;;;8.50;1.90;;;11.00;79.90;;;;;;4808214;29;20063;-75
2022/02/28 12:00:47;;;;;;;15.98;2.53;;;10.90;79.80;;;;;;4808363;29;20047;-75
2022/02/28 12:03:21;;;;;;;10.13;2.20;;;10.90;79.90;;;;;;4808037;29;20493;-75
2022/02/28 12:05:49;;;;;;;11.00;1.98;;;10.90;79.80;;;;;;4808262;29;20541;-75
2022/02/28 12:08:35;;;;;;;9.77;2.00;;;10.80;80.00;;;;;;4806721;29;20397;-75
2022/02/28 12:11:20;;;;;;;9.75;1.90;;;10.90;79.80;;;;;;4822050;29;20055;-75
2022/02/28 12:14:06;;;;;;;18.73;2.45;;;10.90;79.80;;;;;;4807087;29;20058;-75
2022/02/28 12:19:33;;;;;;;12.25;1.80;;;10.90;80.00;;;;;;4808096;29;20051;-75
2022/02/28 12:22:04;;;;;;;12.27;2.35;;;10.80;80.10;;;;;;4807241;29;20513;-75
2022/02/28 12:24:54;;;;;;;8.98;2.03;;;10.80;80.10;;;;;;4807988;29;20059;-75
2022/02/28 12:27:32;;;;;;;11.68;2.22;;;10.90;80.00;;;;;;4807996;29;20055;-75
2022/02/28 12:30:38;;;;;;;13.07;2.28;;;10.80;80.30;;;;;;4807893;29;20055;-75
2022/02/28 12:33:05;;;;;;;8.25;1.65;;;10.90;80.70;;;;;;4805254;29;20497;-74
2022/02/28 12:35:48;;;;;;;12.40;1.90;;;10.90;81.30;;;;;;4808674;29;20409;-75
2022/02/28 12:38:17;;;;;;;22.02;3.25;;;10.80;81.80;;;;;;4821635;29;20059;-75
2022/02/28 12:41:09;;;;;;;16.48;2.67;;;10.80;82.50;;;;;;4807253;29;20070;-76
2022/02/28 12:43:39;;;;;;;12.07;2.40;;;10.80;82.60;;;;;;4802561;29;20071;-74
2022/02/28 12:46:16;;;;;;;10.65;2.00;;;10.80;82.90;;;;;;4803231;29;20502;-75
2022/02/28 12:48:48;;;;;;;16.98;2.60;;;10.80;83.20;;;;;;4805628;29;20055;-75
2022/02/28 12:51:24;;;;;;;14.35;2.63;;;10.80;83.30;;;;;;4806612;29;20051;-76
2022/02/28 12:54:01;;;;;;;14.25;2.55;;;10.80;83.60;;;;;;4806772;29;20070;-75
2022/02/28 12:56:28;;;;;;;17.40;3.35;;;10.80;83.60;;;;;;4807208;29;20038;-75
2022/02/28 12:58:57;;;;;;;21.02;2.58;;;10.70;83.70;;;;;;4806808;29;20055;-75
2022/02/28 13:01:28;;;;;;;16.35;2.78;;;10.80;83.70;;;;;;4806700;29;20524;-74
2022/02/28 13:03:57;;;;;;;14.20;2.15;;;10.80;83.60;;;;;;4791055;29;20074;-74